Stanwood, WA

1:42 AM PDT on September 05, 2015 (GMT -0700)
Happy Valley | | Change Station
CLOSE
Current Station
Personal Weather Station
Location: Stanwood, WA
Elevation: 377 ft
Nearby Weather Stations

Elev 377 ft 48.17 °N, 122.27 °W | Updated 4 days ago

Partly Cloudy
Partly Cloudy
47 °F
Feels Like 47 °F
N
2
Wind Variable Wind from SSE
Gusts mph

Today
High -- | Low -- °F
--% Chance of Precip.
Yesterday
High -- | Low -- °F
Precip. -- in
6:32 AM 7:42 PM
Waning Gibbous, 51% visible
Pressure 30.03 in
Visibility 0.2 miles
Clouds Overcast 200 ft
Dew Point 43 °F
Humidity 85%
Rainfall in
Snow Depth Not available.
UV 0.0 out of 12
Pollen 2.50 out of 12
Air Quality Not available.
Flu Activity Not available.
METAR KAWO 050835Z 00000KT M1/4SM OVC002 07/05 A3003 RMK AO1
Pressure 30.03 in
Visibility 0.2 miles
Clouds Overcast 200 ft
Dew Point 43 °F
Humidity 85%
Rainfall in
Snow Depth Not available.
UV 0.0 out of 12
Pollen 2.50 out of 12
Air Quality Not available.
Flu Activity Not available.
METAR KAWO 050835Z 00000KT M1/4SM OVC002 07/05 A3003 RMK AO1

10-Day Weather Forecast

×

Almanac

Astronomy

Sep. 05, 2015 Rise Set
Actual Time
Civil Twilight
Nautical Twilight
Astronomical Twilight
Moon
Length of Visible Light
Length of Day
Tomorrow will be .
, % of the Moon is Illuminated

Today's Extremes

State Highs State Lows

Community

WunderPhotos

Upload Photos

1,852,440 photos uploaded!

WunderBlogs® & News

Nearby

Air Quality

  Air Quality AQ Index Pollutant
Not available.

Snow Depth

Station Depth Elevation

Earthquake Activity

City Distance Mag. Time & Date
Minimum magnitude displayed is 2.5.

Coastal Water Temperatures

Place Temperature

Stations

Nearby Weather Stations

Station Location Temp. Windchill Dew Point Humidity Wind Precip. Elev Updated Type